Portada
METAR-TAF:

METAR-TAF

Aeropuertos :

Aeropuerto Internacional Houari Boumedienne

Argel, Argelia

latitud: 36-43N, longitud: 003-15E, altitud: 25 m

Observación

El informe se hizo hace 22 minutos, a las 08:30 UTC
Viento calma
Temperatura 15°C
Humedad 44%
Presión 1022 hPa
Visibilidad 10 km o más
sin nubes por debajo de 1500 m y sin presencia de cumulonimbus.

METAR: DAAG 180830Z 00000KT CAVOK 15/03 Q1022

Hora: 09:52 (08:52 UTC)

Pronóstico

El informe se hizo hace 3 horas y 52 minutos, a las 05:00 UTC
Pronóstico válido del 18 a las 06 UTC al 19 a las 06 UTC
Viento 2 kt con dirección variable
Visibilidad 10 km o más
sin nubes por debajo de 1500 m y sin presencia de cumulonimbus.
Evolucionando progresivamente
del 18 a las 12 UTC al 18 a las 15 UTC
Viento 10 kt del norte
Evolucionando progresivamente
del 18 a las 20 UTC al 18 a las 23 UTC
Viento 2 kt con dirección variable

TAF: DAAG 180500Z 1806/1906 VRB02KT CAVOK BECMG 1812/1815 35010KT BECMG 1820/1823 VRB02KT

Observaciones y pronósticos meteorológicos de más de 4000 aeropuertos (mensajes METAR y TAF).

Los puntos amarillos y rojos representan las estaciones disponibles.

Ponga el ratón en el punto deseado para ver el nombre de la estación.

Haga clic para ver las observaciones y los pronósticos meteorológicos.

Para cambiar el mapa : haga clic en los botones verdes con una cruz de color negro para hacer un zoom, en el botón verde con un guión para alejar o en las flechas verdes para mapas adyacentes.


METAR-TAF: